Terminal Aerodrome Forecast
Issued by NWS

Home | Current Version | Previous Version | Text Only | Print | Product List | Glossary On
Versions: 1 2 3 4 5 6 7 8 9 10 11 12 13 14 15 16 17
000
FTUS42 KGSP 231730
TAFHKY
TAF
KHKY 231730Z 2318/2418 16011KT 6SM -SHRA BR OVC007
      TEMPO 2319/2323 VRB12G22KT 1SM +TSRA BR OVC005CB
     FM232300 21008KT P6SM VCSH BKN035
     FM240200 23007KT P6SM FEW110 BKN250
     FM240900 VRB03KT 5SM BR FEW080 BKN250
     FM241300 24006KT P6SM FEW250=

USA.gov is the U.S. government's official web portal to all federal, state and local government web resources and services.